sensor_id;sensor_type;location;lat;lon;timestamp;pressure;altitude;pressure_sealevel;temperature;humidity
59289;BME280;45056;47.602;9.886;2024-03-22T00:00:18;93646.75;;;10.12;62.49
59289;BME280;45056;47.602;9.886;2024-03-22T00:02:46;93641.81;;;10.07;62.73
59289;BME280;45056;47.602;9.886;2024-03-22T00:05:13;93643.50;;;10.01;62.87
59289;BME280;45056;47.602;9.886;2024-03-22T00:07:43;93640.06;;;9.96;62.73
59289;BME280;45056;47.602;9.886;2024-03-22T00:10:10;93640.91;;;9.93;62.99
59289;BME280;45056;47.602;9.886;2024-03-22T00:12:38;93635.13;;;9.91;62.86
59289;BME280;45056;47.602;9.886;2024-03-22T00:15:07;93636.75;;;9.89;62.73
59289;BME280;45056;47.602;9.886;2024-03-22T00:17:35;93637.59;;;9.86;62.82
59289;BME280;45056;47.602;9.886;2024-03-22T00:20:02;93627.19;;;9.80;62.83
59289;BME280;45056;47.602;9.886;2024-03-22T00:22:32;93621.84;;;9.77;62.92
59289;BME280;45056;47.602;9.886;2024-03-22T00:24:59;93626.97;;;9.71;62.79
59289;BME280;45056;47.602;9.886;2024-03-22T00:27:27;93627.47;;;9.66;62.75
59289;BME280;45056;47.602;9.886;2024-03-22T00:29:54;93620.91;;;9.63;62.85
59289;BME280;45056;47.602;9.886;2024-03-22T00:32:23;93631.09;;;9.59;62.76
59289;BME280;45056;47.602;9.886;2024-03-22T00:34:50;93633.13;;;9.55;62.68
59289;BME280;45056;47.602;9.886;2024-03-22T00:37:18;93635.13;;;9.51;62.96
59289;BME280;45056;47.602;9.886;2024-03-22T00:39:45;93629.00;;;9.47;63.23
59289;BME280;45056;47.602;9.886;2024-03-22T00:42:13;93629.06;;;9.43;63.09
59289;BME280;45056;47.602;9.886;2024-03-22T00:44:40;93621.00;;;9.40;63.09
59289;BME280;45056;47.602;9.886;2024-03-22T00:47:09;93624.56;;;9.36;63.09
59289;BME280;45056;47.602;9.886;2024-03-22T00:49:37;93612.56;;;9.34;63.20
59289;BME280;45056;47.602;9.886;2024-03-22T00:52:05;93615.69;;;9.32;63.20
59289;BME280;45056;47.602;9.886;2024-03-22T00:54:32;93606.78;;;9.32;63.29
59289;BME280;45056;47.602;9.886;2024-03-22T00:57:01;93600.56;;;9.31;63.23
59289;BME280;45056;47.602;9.886;2024-03-22T00:59:28;93601.75;;;9.30;63.13
59289;BME280;45056;47.602;9.886;2024-03-22T01:01:56;93603.28;;;9.31;62.99
59289;BME280;45056;47.602;9.886;2024-03-22T01:04:23;93593.25;;;9.28;62.74
59289;BME280;45056;47.602;9.886;2024-03-22T01:06:52;93595.63;;;9.26;62.58
59289;BME280;45056;47.602;9.886;2024-03-22T01:09:19;93597.59;;;9.26;62.68
59289;BME280;45056;47.602;9.886;2024-03-22T01:11:47;93593.75;;;9.23;62.70
59289;BME280;45056;47.602;9.886;2024-03-22T01:14:14;93597.31;;;9.20;62.58
59289;BME280;45056;47.602;9.886;2024-03-22T01:16:42;93591.19;;;9.16;62.70
59289;BME280;45056;47.602;9.886;2024-03-22T01:19:10;93585.81;;;9.12;62.78
59289;BME280;45056;47.602;9.886;2024-03-22T01:21:38;93588.94;;;9.11;62.93
59289;BME280;45056;47.602;9.886;2024-03-22T01:24:06;93573.50;;;9.07;62.92
59289;BME280;45056;47.602;9.886;2024-03-22T01:26:34;93577.38;;;9.06;62.84
59289;BME280;45056;47.602;9.886;2024-03-22T01:29:01;93581.28;;;9.05;62.83
59289;BME280;45056;47.602;9.886;2024-03-22T01:31:39;93573.94;;;9.02;62.88
59289;BME280;45056;47.602;9.886;2024-03-22T01:34:07;93578.28;;;9.00;62.96
59289;BME280;45056;47.602;9.886;2024-03-22T01:36:35;93569.00;;;8.97;62.94
59289;BME280;45056;47.602;9.886;2024-03-22T01:39:02;93567.13;;;8.94;63.03
59289;BME280;45056;47.602;9.886;2024-03-22T01:41:32;93559.41;;;8.92;63.00
59289;BME280;45056;47.602;9.886;2024-03-22T01:44:00;93564.06;;;8.92;62.93
59289;BME280;45056;47.602;9.886;2024-03-22T01:46:28;93573.75;;;8.93;62.94
59289;BME280;45056;47.602;9.886;2024-03-22T01:48:55;93562.13;;;8.92;62.90
59289;BME280;45056;47.602;9.886;2024-03-22T01:51:23;93565.59;;;8.93;62.71
59289;BME280;45056;47.602;9.886;2024-03-22T01:53:52;93557.44;;;8.93;62.55
59289;BME280;45056;47.602;9.886;2024-03-22T01:56:22;93556.69;;;8.92;62.62
59289;BME280;45056;47.602;9.886;2024-03-22T01:58:50;93557.44;;;8.93;62.51
59289;BME280;45056;47.602;9.886;2024-03-22T02:01:19;93556.34;;;8.90;62.55
59289;BME280;45056;47.602;9.886;2024-03-22T02:03:46;93556.75;;;8.89;62.68
59289;BME280;45056;47.602;9.886;2024-03-22T02:06:14;93549.09;;;8.84;62.79
59289;BME280;45056;47.602;9.886;2024-03-22T02:08:41;93558.06;;;8.80;62.62
59289;BME280;45056;47.602;9.886;2024-03-22T02:11:10;93554.22;;;8.78;62.76
59289;BME280;45056;47.602;9.886;2024-03-22T02:13:37;93554.22;;;8.78;62.89
59289;BME280;45056;47.602;9.886;2024-03-22T02:16:07;93549.22;;;8.76;62.85
59289;BME280;45056;47.602;9.886;2024-03-22T02:18:34;93541.50;;;8.75;63.14
59289;BME280;45056;47.602;9.886;2024-03-22T02:21:03;93547.69;;;8.75;63.19
59289;BME280;45056;47.602;9.886;2024-03-22T02:23:34;93537.59;;;8.76;63.24
59289;BME280;45056;47.602;9.886;2024-03-22T02:26:03;93529.88;;;8.74;63.04
59289;BME280;45056;47.602;9.886;2024-03-22T02:28:33;93528.31;;;8.73;63.02
59289;BME280;45056;47.602;9.886;2024-03-22T02:31:03;93524.09;;;8.72;63.09
59289;BME280;45056;47.602;9.886;2024-03-22T02:33:30;93517.91;;;8.72;63.02
59289;BME280;45056;47.602;9.886;2024-03-22T02:35:58;93512.88;;;8.70;62.95
59289;BME280;45056;47.602;9.886;2024-03-22T02:38:25;93511.34;;;8.69;62.77
59289;BME280;45056;47.602;9.886;2024-03-22T02:40:55;93507.09;;;8.68;62.71
59289;BME280;45056;47.602;9.886;2024-03-22T02:43:24;93495.91;;;8.66;62.85
59289;BME280;45056;47.602;9.886;2024-03-22T02:45:52;93500.22;;;8.63;63.01
59289;BME280;45056;47.602;9.886;2024-03-22T02:48:19;93492.09;;;8.63;62.89
59289;BME280;45056;47.602;9.886;2024-03-22T02:50:47;93497.09;;;8.65;63.05
59289;BME280;45056;47.602;9.886;2024-03-22T02:53:14;93489.72;;;8.65;62.90
59289;BME280;45056;47.602;9.886;2024-03-22T02:55:42;93490.47;;;8.66;62.98
59289;BME280;45056;47.602;9.886;2024-03-22T02:58:10;93482.34;;;8.66;62.81
59289;BME280;45056;47.602;9.886;2024-03-22T03:00:38;93484.31;;;8.65;62.91
59289;BME280;45056;47.602;9.886;2024-03-22T03:03:06;93486.59;;;8.67;62.82
59289;BME280;45056;47.602;9.886;2024-03-22T03:05:34;93481.50;;;8.69;62.87
59289;BME280;45056;47.602;9.886;2024-03-22T03:08:01;93471.00;;;8.71;62.70
59289;BME280;45056;47.602;9.886;2024-03-22T03:10:30;93477.16;;;8.75;62.69
59289;BME280;45056;47.602;9.886;2024-03-22T03:12:57;93477.84;;;8.79;62.89
59289;BME280;45056;47.602;9.886;2024-03-22T03:15:26;93483.97;;;8.84;62.79
59289;BME280;45056;47.602;9.886;2024-03-22T03:17:53;93483.88;;;8.87;62.65
59289;BME280;45056;47.602;9.886;2024-03-22T03:20:21;93483.06;;;8.90;62.60
59289;BME280;45056;47.602;9.886;2024-03-22T03:22:48;93482.66;;;8.92;62.29
59289;BME280;45056;47.602;9.886;2024-03-22T03:25:16;93484.19;;;8.93;62.04
59289;BME280;45056;47.602;9.886;2024-03-22T03:27:43;93482.25;;;8.93;61.84
59289;BME280;45056;47.602;9.886;2024-03-22T03:30:11;93477.22;;;8.92;61.83
59289;BME280;45056;47.602;9.886;2024-03-22T03:32:40;93483.84;;;8.91;61.78
59289;BME280;45056;47.602;9.886;2024-03-22T03:35:08;93479.53;;;8.93;61.94
59289;BME280;45056;47.602;9.886;2024-03-22T03:37:35;93475.97;;;8.97;61.99
59289;BME280;45056;47.602;9.886;2024-03-22T03:40:04;93467.84;;;8.97;61.74
59289;BME280;45056;47.602;9.886;2024-03-22T03:42:32;93469.38;;;8.98;61.74
59289;BME280;45056;47.602;9.886;2024-03-22T03:45:00;93464.78;;;8.94;61.64
59289;BME280;45056;47.602;9.886;2024-03-22T03:47:27;93470.19;;;8.94;61.58
59289;BME280;45056;47.602;9.886;2024-03-22T03:49:56;93466.81;;;8.90;61.54
59289;BME280;45056;47.602;9.886;2024-03-22T03:52:24;93475.75;;;8.87;61.53
59289;BME280;45056;47.602;9.886;2024-03-22T03:54:52;93463.78;;;8.85;61.62
59289;BME280;45056;47.602;9.886;2024-03-22T03:57:19;93461.13;;;8.81;61.66
59289;BME280;45056;47.602;9.886;2024-03-22T03:59:47;93448.34;;;8.82;62.05
59289;BME280;45056;47.602;9.886;2024-03-22T04:02:14;93459.13;;;8.85;62.16
59289;BME280;45056;47.602;9.886;2024-03-22T04:04:42;93457.13;;;8.89;62.30
59289;BME280;45056;47.602;9.886;2024-03-22T04:07:10;93451.63;;;8.93;62.37
59289;BME280;45056;47.602;9.886;2024-03-22T04:09:38;93448.84;;;8.97;62.48
59289;BME280;45056;47.602;9.886;2024-03-22T04:12:05;93458.84;;;9.00;62.42
59289;BME280;45056;47.602;9.886;2024-03-22T04:14:34;93451.06;;;9.02;62.42
59289;BME280;45056;47.602;9.886;2024-03-22T04:17:01;93451.41;;;9.04;62.37
59289;BME280;45056;47.602;9.886;2024-03-22T04:19:29;93445.13;;;9.07;62.30
59289;BME280;45056;47.602;9.886;2024-03-22T04:21:56;93436.16;;;9.10;62.12
59289;BME280;45056;47.602;9.886;2024-03-22T04:24:25;93436.50;;;9.12;61.95
59289;BME280;45056;47.602;9.886;2024-03-22T04:26:52;93441.16;;;9.12;61.93
59289;BME280;45056;47.602;9.886;2024-03-22T04:29:20;93441.56;;;9.10;61.94
59289;BME280;45056;47.602;9.886;2024-03-22T04:31:47;93442.75;;;9.09;62.03
59289;BME280;45056;47.602;9.886;2024-03-22T04:34:15;93440.38;;;9.11;61.93
59289;BME280;45056;47.602;9.886;2024-03-22T04:36:42;93430.66;;;9.14;61.97
59289;BME280;45056;47.602;9.886;2024-03-22T04:39:11;93429.81;;;9.17;61.95
59289;BME280;45056;47.602;9.886;2024-03-22T04:41:41;93424.72;;;9.19;61.91
59289;BME280;45056;47.602;9.886;2024-03-22T04:44:09;93435.94;;;9.21;61.94
59289;BME280;45056;47.602;9.886;2024-03-22T04:46:37;93432.03;;;9.22;61.92
59289;BME280;45056;47.602;9.886;2024-03-22T04:49:04;93420.41;;;9.21;61.87
59289;BME280;45056;47.602;9.886;2024-03-22T04:51:32;93427.38;;;9.22;61.79
59289;BME280;45056;47.602;9.886;2024-03-22T04:53:59;93434.75;;;9.22;61.87
59289;BME280;45056;47.602;9.886;2024-03-22T04:56:27;93423.88;;;9.22;61.76
59289;BME280;45056;47.602;9.886;2024-03-22T04:58:56;93416.50;;;9.22;61.83
59289;BME280;45056;47.602;9.886;2024-03-22T05:01:24;93421.94;;;9.22;61.74
59289;BME280;45056;47.602;9.886;2024-03-22T05:03:51;93415.75;;;9.22;61.79
59289;BME280;45056;47.602;9.886;2024-03-22T05:06:19;93412.28;;;9.21;61.78
59289;BME280;45056;47.602;9.886;2024-03-22T05:08:46;93421.16;;;9.22;61.63
59289;BME280;45056;47.602;9.886;2024-03-22T05:11:14;93415.75;;;9.22;61.65
59289;BME280;45056;47.602;9.886;2024-03-22T05:13:41;93425.06;;;9.21;61.69
59289;BME280;45056;47.602;9.886;2024-03-22T05:16:10;93414.56;;;9.23;61.67
59289;BME280;45056;47.602;9.886;2024-03-22T05:18:38;93411.84;;;9.23;61.54
59289;BME280;45056;47.602;9.886;2024-03-22T05:21:06;93407.94;;;9.24;61.58
59289;BME280;45056;47.602;9.886;2024-03-22T05:23:33;93412.19;;;9.25;61.55
59289;BME280;45056;47.602;9.886;2024-03-22T05:26:01;93401.66;;;9.27;61.39
59289;BME280;45056;47.602;9.886;2024-03-22T05:28:30;93410.16;;;9.29;61.45
59289;BME280;45056;47.602;9.886;2024-03-22T05:30:58;93406.59;;;9.32;61.43
59289;BME280;45056;47.602;9.886;2024-03-22T05:33:27;93409.63;;;9.34;61.32
59289;BME280;45056;47.602;9.886;2024-03-22T05:35:55;93404.13;;;9.38;61.18
59289;BME280;45056;47.602;9.886;2024-03-22T05:38:22;93410.34;;;9.38;61.16
59289;BME280;45056;47.602;9.886;2024-03-22T05:40:50;93406.78;;;9.42;61.12
59289;BME280;45056;47.602;9.886;2024-03-22T05:43:17;93405.94;;;9.45;61.17
59289;BME280;45056;47.602;9.886;2024-03-22T05:45:45;93400.41;;;9.48;60.99
59289;BME280;45056;47.602;9.886;2024-03-22T05:48:12;93401.13;;;9.52;60.89
59289;BME280;45056;47.602;9.886;2024-03-22T05:50:41;93402.53;;;9.57;60.91
59289;BME280;45056;47.602;9.886;2024-03-22T05:53:09;93410.97;;;9.63;60.76
59289;BME280;45056;47.602;9.886;2024-03-22T05:55:36;93405.81;;;9.69;60.53
59289;BME280;45056;47.602;9.886;2024-03-22T05:58:04;93402.56;;;9.74;60.54
59289;BME280;45056;47.602;9.886;2024-03-22T06:00:31;93405.09;;;9.81;60.39
59289;BME280;45056;47.602;9.886;2024-03-22T06:02:59;93406.13;;;9.87;60.37
59289;BME280;45056;47.602;9.886;2024-03-22T06:05:26;93401.28;;;9.95;60.28
59289;BME280;45056;47.602;9.886;2024-03-22T06:07:56;93403.81;;;10.02;59.92
59289;BME280;45056;47.602;9.886;2024-03-22T06:10:23;93394.41;;;10.07;59.67
59289;BME280;45056;47.602;9.886;2024-03-22T06:12:51;93397.69;;;10.15;59.67
59289;BME280;45056;47.602;9.886;2024-03-22T06:15:18;93406.41;;;10.22;59.50
59289;BME280;45056;47.602;9.886;2024-03-22T06:17:47;93400.81;;;10.30;59.38
59289;BME280;45056;47.602;9.886;2024-03-22T06:20:15;93397.91;;;10.37;59.02
59289;BME280;45056;47.602;9.886;2024-03-22T06:22:43;93393.50;;;10.43;58.71
59289;BME280;45056;47.602;9.886;2024-03-22T06:25:11;93404.63;;;10.49;58.76
59289;BME280;45056;47.602;9.886;2024-03-22T06:27:39;93402.56;;;10.53;58.31
59289;BME280;45056;47.602;9.886;2024-03-22T06:30:07;93404.84;;;10.54;58.03
59289;BME280;45056;47.602;9.886;2024-03-22T06:32:35;93403.25;;;10.57;58.05
59289;BME280;45056;47.602;9.886;2024-03-22T06:35:03;93396.94;;;10.60;57.89
59289;BME280;45056;47.602;9.886;2024-03-22T06:37:32;93404.31;;;10.60;57.52
59289;BME280;45056;47.602;9.886;2024-03-22T06:39:59;93401.97;;;10.62;57.54
59289;BME280;45056;47.602;9.886;2024-03-22T06:42:28;93398.38;;;10.65;57.83
59289;BME280;45056;47.602;9.886;2024-03-22T06:44:55;93399.91;;;10.66;57.57
59289;BME280;45056;47.602;9.886;2024-03-22T06:47:23;93390.53;;;10.67;57.48
59289;BME280;45056;47.602;9.886;2024-03-22T06:49:50;93398.25;;;10.68;57.41
59289;BME280;45056;47.602;9.886;2024-03-22T06:52:18;93394.66;;;10.72;57.53
59289;BME280;45056;47.602;9.886;2024-03-22T06:54:46;93398.84;;;10.76;57.50
59289;BME280;45056;47.602;9.886;2024-03-22T06:57:14;93394.50;;;10.79;57.49
59289;BME280;45056;47.602;9.886;2024-03-22T06:59:42;93404.19;;;10.80;57.44
59289;BME280;45056;47.602;9.886;2024-03-22T07:02:10;93397.88;;;10.83;57.56
59289;BME280;45056;47.602;9.886;2024-03-22T07:04:39;93398.22;;;10.85;57.55
59289;BME280;45056;47.602;9.886;2024-03-22T07:07:07;93391.97;;;10.85;57.40
59289;BME280;45056;47.602;9.886;2024-03-22T07:09:34;93397.75;;;10.87;57.51
59289;BME280;45056;47.602;9.886;2024-03-22T07:12:02;93393.09;;;10.87;57.50
59289;BME280;45056;47.602;9.886;2024-03-22T07:14:30;93394.63;;;10.88;57.48
59289;BME280;45056;47.602;9.886;2024-03-22T07:16:59;93386.00;;;10.90;57.39
59289;BME280;45056;47.602;9.886;2024-03-22T07:19:26;93384.06;;;10.90;57.30
59289;BME280;45056;47.602;9.886;2024-03-22T07:21:55;93382.44;;;10.93;57.35
59289;BME280;45056;47.602;9.886;2024-03-22T07:24:22;93384.28;;;10.96;57.23
59289;BME280;45056;47.602;9.886;2024-03-22T07:26:50;93387.22;;;11.02;57.01
59289;BME280;45056;47.602;9.886;2024-03-22T07:29:17;93389.97;;;11.15;56.86
59289;BME280;45056;47.602;9.886;2024-03-22T07:31:46;93377.88;;;11.29;56.90
59289;BME280;45056;47.602;9.886;2024-03-22T07:34:14;93379.53;;;11.52;56.57
59289;BME280;45056;47.602;9.886;2024-03-22T07:36:42;93387.09;;;11.96;55.84
59289;BME280;45056;47.602;9.886;2024-03-22T07:39:09;93384.28;;;12.70;54.32
59289;BME280;45056;47.602;9.886;2024-03-22T07:41:37;93371.28;;;13.37;52.28
59289;BME280;45056;47.602;9.886;2024-03-22T07:44:04;93375.50;;;14.11;50.86
59289;BME280;45056;47.602;9.886;2024-03-22T07:46:32;93379.66;;;14.90;50.48
59289;BME280;45056;47.602;9.886;2024-03-22T07:48:59;93371.06;;;15.68;49.90
59289;BME280;45056;47.602;9.886;2024-03-22T07:51:29;93375.91;;;16.32;48.56
59289;BME280;45056;47.602;9.886;2024-03-22T07:53:56;93367.66;;;16.71;47.38
59289;BME280;45056;47.602;9.886;2024-03-22T07:56:24;93377.34;;;16.96;45.89
59289;BME280;45056;47.602;9.886;2024-03-22T07:58:51;93373.13;;;17.40;45.09
59289;BME280;45056;47.602;9.886;2024-03-22T08:01:19;93369.63;;;17.91;44.38
59289;BME280;45056;47.602;9.886;2024-03-22T08:03:46;93364.25;;;18.38;43.45
59289;BME280;45056;47.602;9.886;2024-03-22T08:06:15;93359.19;;;18.78;43.04
59289;BME280;45056;47.602;9.886;2024-03-22T08:08:43;93366.91;;;19.21;42.98
59289;BME280;45056;47.602;9.886;2024-03-22T08:11:12;93364.50;;;19.60;42.01
59289;BME280;45056;47.602;9.886;2024-03-22T08:13:40;93366.84;;;19.73;40.87
59289;BME280;45056;47.602;9.886;2024-03-22T08:16:07;93366.47;;;19.54;39.67
59289;BME280;45056;47.602;9.886;2024-03-22T08:18:35;93360.38;;;19.18;39.34
59289;BME280;45056;47.602;9.886;2024-03-22T08:21:02;93364.78;;;18.83;39.19
59289;BME280;45056;47.602;9.886;2024-03-22T08:23:31;93351.19;;;18.53;39.59
59289;BME280;45056;47.602;9.886;2024-03-22T08:25:59;93355.94;;;18.32;40.20
59289;BME280;45056;47.602;9.886;2024-03-22T08:28:27;93354.41;;;18.10;40.27
59289;BME280;45056;47.602;9.886;2024-03-22T08:30:54;93356.47;;;17.80;40.85
59289;BME280;45056;47.602;9.886;2024-03-22T08:33:22;93358.50;;;17.49;41.30
59289;BME280;45056;47.602;9.886;2024-03-22T08:35:49;93345.63;;;17.25;41.77
59289;BME280;45056;47.602;9.886;2024-03-22T08:38:18;93354.94;;;17.13;42.33
59289;BME280;45056;47.602;9.886;2024-03-22T08:40:45;93350.56;;;17.06;42.72
59289;BME280;45056;47.602;9.886;2024-03-22T08:43:14;93348.22;;;16.99;42.83
59289;BME280;45056;47.602;9.886;2024-03-22T08:45:41;93349.78;;;16.91;42.42
59289;BME280;45056;47.602;9.886;2024-03-22T08:48:09;93348.28;;;16.90;43.04
59289;BME280;45056;47.602;9.886;2024-03-22T08:50:36;93346.09;;;16.94;43.40
59289;BME280;45056;47.602;9.886;2024-03-22T08:53:04;93349.06;;;17.05;43.73
59289;BME280;45056;47.602;9.886;2024-03-22T08:55:33;93338.72;;;17.30;43.19
59289;BME280;45056;47.602;9.886;2024-03-22T08:58:01;93340.94;;;17.62;42.75
59289;BME280;45056;47.602;9.886;2024-03-22T09:00:29;93335.16;;;17.95;42.00
59289;BME280;45056;47.602;9.886;2024-03-22T09:02:57;93332.84;;;18.09;41.05
59289;BME280;45056;47.602;9.886;2024-03-22T09:05:24;93327.28;;;18.03;41.16
59289;BME280;45056;47.602;9.886;2024-03-22T09:07:54;93329.56;;;17.89;40.82
59289;BME280;45056;47.602;9.886;2024-03-22T09:10:22;93324.69;;;17.79;41.37
59289;BME280;45056;47.602;9.886;2024-03-22T09:12:51;93329.84;;;17.71;41.17
59289;BME280;45056;47.602;9.886;2024-03-22T09:15:18;93321.69;;;17.62;42.03
59289;BME280;45056;47.602;9.886;2024-03-22T09:17:47;93321.34;;;17.54;41.60
59289;BME280;45056;47.602;9.886;2024-03-22T09:20:15;93317.44;;;17.45;41.33
59289;BME280;45056;47.602;9.886;2024-03-22T09:22:43;93323.63;;;17.40;40.92
59289;BME280;45056;47.602;9.886;2024-03-22T09:25:10;93311.50;;;17.32;40.73
59289;BME280;45056;47.602;9.886;2024-03-22T09:27:38;93306.97;;;17.29;41.04
59289;BME280;45056;47.602;9.886;2024-03-22T09:30:06;93311.53;;;17.17;41.35
59289;BME280;45056;47.602;9.886;2024-03-22T09:32:36;93316.63;;;17.09;41.68
59289;BME280;45056;47.602;9.886;2024-03-22T09:35:05;93312.09;;;17.06;41.43
59289;BME280;45056;47.602;9.886;2024-03-22T09:37:34;93307.38;;;17.07;41.21
59289;BME280;45056;47.602;9.886;2024-03-22T09:40:01;93304.34;;;17.05;41.19
59289;BME280;45056;47.602;9.886;2024-03-22T09:42:38;93291.06;;;17.03;41.79
59289;BME280;45056;47.602;9.886;2024-03-22T09:45:09;93301.88;;;17.07;41.21
59289;BME280;45056;47.602;9.886;2024-03-22T09:47:38;93294.94;;;17.11;39.49
59289;BME280;45056;47.602;9.886;2024-03-22T09:50:08;93295.78;;;17.18;38.47
59289;BME280;45056;47.602;9.886;2024-03-22T09:52:38;93288.38;;;17.24;38.50
59289;BME280;45056;47.602;9.886;2024-03-22T09:55:06;93292.72;;;17.30;38.32
59289;BME280;45056;47.602;9.886;2024-03-22T09:57:38;93294.31;;;17.37;38.04
59289;BME280;45056;47.602;9.886;2024-03-22T10:00:07;93285.22;;;17.46;38.08
59289;BME280;45056;47.602;9.886;2024-03-22T10:02:36;93284.06;;;17.53;37.97
59289;BME280;45056;47.602;9.886;2024-03-22T10:05:05;93281.88;;;17.57;37.77
59289;BME280;45056;47.602;9.886;2024-03-22T10:07:35;93282.41;;;17.61;37.95
59289;BME280;45056;47.602;9.886;2024-03-22T10:10:03;93268.16;;;17.63;37.86
59289;BME280;45056;47.602;9.886;2024-03-22T10:12:31;93275.50;;;17.66;37.71
59289;BME280;45056;47.602;9.886;2024-03-22T10:14:59;93272.78;;;17.71;37.81
59289;BME280;45056;47.602;9.886;2024-03-22T10:17:28;93272.88;;;17.77;37.76
59289;BME280;45056;47.602;9.886;2024-03-22T10:19:55;93274.94;;;17.82;37.28
59289;BME280;45056;47.602;9.886;2024-03-22T10:22:25;93265.25;;;17.87;37.00
59289;BME280;45056;47.602;9.886;2024-03-22T10:24:53;93259.25;;;17.88;36.76
59289;BME280;45056;47.602;9.886;2024-03-22T10:27:22;93259.06;;;17.92;37.09
59289;BME280;45056;47.602;9.886;2024-03-22T10:29:49;93258.09;;;17.95;37.69
59289;BME280;45056;47.602;9.886;2024-03-22T10:32:18;93255.88;;;17.99;37.01
59289;BME280;45056;47.602;9.886;2024-03-22T10:34:46;93255.88;;;17.99;36.28
59289;BME280;45056;47.602;9.886;2024-03-22T10:37:16;93248.88;;;17.98;37.21
59289;BME280;45056;47.602;9.886;2024-03-22T10:39:43;93255.59;;;17.97;37.52
59289;BME280;45056;47.602;9.886;2024-03-22T10:42:17;93251.34;;;17.96;38.10
59289;BME280;45056;47.602;9.886;2024-03-22T10:44:45;93247.63;;;17.99;38.21
59289;BME280;45056;47.602;9.886;2024-03-22T10:47:18;93241.44;;;18.05;37.10
59289;BME280;45056;47.602;9.886;2024-03-22T10:49:56;93235.94;;;18.05;37.51
59289;BME280;45056;47.602;9.886;2024-03-22T10:52:36;93237.25;;;18.09;37.51
59289;BME280;45056;47.602;9.886;2024-03-22T10:55:11;93239.59;;;18.16;37.34
59289;BME280;45056;47.602;9.886;2024-03-22T10:57:45;93236.91;;;18.22;37.56
59289;BME280;45056;47.602;9.886;2024-03-22T11:00:13;93231.19;;;18.26;37.06
59289;BME280;45056;47.602;9.886;2024-03-22T11:02:44;93226.97;;;18.30;36.94
59289;BME280;45056;47.602;9.886;2024-03-22T11:05:16;93227.50;;;18.35;37.08
59289;BME280;45056;47.602;9.886;2024-03-22T11:07:45;93232.31;;;18.40;36.99
59289;BME280;45056;47.602;9.886;2024-03-22T11:10:12;93232.38;;;18.45;36.98
59289;BME280;45056;47.602;9.886;2024-03-22T11:12:41;93231.19;;;18.52;36.59
59289;BME280;45056;47.602;9.886;2024-03-22T11:15:10;93222.44;;;18.54;35.45
59289;BME280;45056;47.602;9.886;2024-03-22T11:17:38;93225.69;;;18.52;35.14
59289;BME280;45056;47.602;9.886;2024-03-22T11:20:06;93221.41;;;18.51;34.40
59289;BME280;45056;47.602;9.886;2024-03-22T11:22:34;93216.66;;;18.52;32.83
59289;BME280;45056;47.602;9.886;2024-03-22T11:25:01;93218.94;;;18.53;31.94
59289;BME280;45056;47.602;9.886;2024-03-22T11:27:29;93222.16;;;18.52;31.25
59289;BME280;45056;47.602;9.886;2024-03-22T11:29:56;93212.66;;;18.53;32.25
59289;BME280;45056;47.602;9.886;2024-03-22T11:32:26;93215.91;;;18.51;32.45
59289;BME280;45056;47.602;9.886;2024-03-22T11:34:53;93199.38;;;18.51;33.62
59289;BME280;45056;47.602;9.886;2024-03-22T11:37:21;93197.88;;;18.50;33.88
59289;BME280;45056;47.602;9.886;2024-03-22T11:39:48;93189.88;;;18.52;34.14
59289;BME280;45056;47.602;9.886;2024-03-22T11:42:17;93185.94;;;18.59;34.36
59289;BME280;45056;47.602;9.886;2024-03-22T11:44:45;93174.72;;;18.68;35.05
59289;BME280;45056;47.602;9.886;2024-03-22T11:47:13;93177.06;;;18.81;35.25
59289;BME280;45056;47.602;9.886;2024-03-22T11:49:42;93171.91;;;18.95;36.05
59289;BME280;45056;47.602;9.886;2024-03-22T11:52:10;93165.78;;;19.11;36.01
59289;BME280;45056;47.602;9.886;2024-03-22T11:54:37;93171.63;;;19.25;35.83
59289;BME280;45056;47.602;9.886;2024-03-22T11:57:05;93171.41;;;19.34;37.16
59289;BME280;45056;47.602;9.886;2024-03-22T11:59:32;93171.22;;;19.43;37.04
59289;BME280;45056;47.602;9.886;2024-03-22T12:02:00;93161.47;;;19.54;36.84
59289;BME280;45056;47.602;9.886;2024-03-22T12:04:27;93166.78;;;19.63;36.38
59289;BME280;45056;47.602;9.886;2024-03-22T12:06:56;93159.75;;;19.62;36.24
59289;BME280;45056;47.602;9.886;2024-03-22T12:09:24;93150.97;;;19.58;36.33
59289;BME280;45056;47.602;9.886;2024-03-22T12:11:55;93150.97;;;19.58;37.01
59289;BME280;45056;47.602;9.886;2024-03-22T12:14:22;93145.97;;;19.62;36.74
59289;BME280;45056;47.602;9.886;2024-03-22T12:16:50;93150.78;;;19.67;36.81
59289;BME280;45056;47.602;9.886;2024-03-22T12:19:17;93136.22;;;19.78;36.77
59289;BME280;45056;47.602;9.886;2024-03-22T12:21:45;93128.00;;;19.89;36.31
59289;BME280;45056;47.602;9.886;2024-03-22T12:24:14;93127.78;;;19.93;36.38
59289;BME280;45056;47.602;9.886;2024-03-22T12:26:42;93120.00;;;19.92;35.96
59289;BME280;45056;47.602;9.886;2024-03-22T12:29:09;93121.75;;;19.95;36.80
59289;BME280;45056;47.602;9.886;2024-03-22T12:31:37;93112.22;;;19.96;36.64
59289;BME280;45056;47.602;9.886;2024-03-22T12:34:05;93115.00;;;19.96;36.50
59289;BME280;45056;47.602;9.886;2024-03-22T12:36:33;93107.72;;;19.98;36.44
59289;BME280;45056;47.602;9.886;2024-03-22T12:39:00;93107.22;;;20.06;35.94
59289;BME280;45056;47.602;9.886;2024-03-22T12:41:30;93103.22;;;20.07;35.12
59289;BME280;45056;47.602;9.886;2024-03-22T12:43:58;93100.94;;;20.05;35.26
59289;BME280;45056;47.602;9.886;2024-03-22T12:46:26;93097.41;;;19.99;35.02
59289;BME280;45056;47.602;9.886;2024-03-22T12:48:54;93095.16;;;19.92;35.31
59289;BME280;45056;47.602;9.886;2024-03-22T12:51:22;93094.59;;;19.82;35.30
59289;BME280;45056;47.602;9.886;2024-03-22T12:53:49;93090.56;;;19.77;35.50
59289;BME280;45056;47.602;9.886;2024-03-22T12:56:17;93086.53;;;19.78;36.40
59289;BME280;45056;47.602;9.886;2024-03-22T12:58:45;93078.78;;;19.88;36.56
59289;BME280;45056;47.602;9.886;2024-03-22T13:01:14;93078.84;;;19.99;36.22
59289;BME280;45056;47.602;9.886;2024-03-22T13:03:41;93081.59;;;20.05;35.33
59289;BME280;45056;47.602;9.886;2024-03-22T13:06:09;93073.06;;;20.03;35.48
59289;BME280;45056;47.602;9.886;2024-03-22T13:08:36;93072.81;;;19.95;36.28